Terminal Aerodrome Forecast
Issued by NWS

Home | Current Version | Previous Version | Graphics & Text | Print | Product List | Glossary On
Versions: 1 2 3 4 5 6 7 8 9 10 11 12 13 14 15 16 17 18 19 20 21 22 23 24 25 26 27 28 29 30
000
FTUS43 KBIS 220226 AAA
TAFDIK
TAF AMD
KDIK 220226Z 2202/2224 06011KT P6SM SCT070 SCT250
     FM220800 06009KT P6SM SCT018 BKN060 BKN120
     FM221400 08013G18KT P6SM BKN060
     FM221900 09019G27KT P6SM VCSH OVC045=

USA.gov is the U.S. government's official web portal to all federal, state and local government web resources and services.